sensor_id;sensor_type;location;lat;lon;timestamp;pressure;altitude;pressure_sealevel;temperature;humidity
56944;BME280;42848;42.524;12.052;2023-07-29T00:00:34;96723.69;;;22.29;100.00
56944;BME280;42848;42.524;12.052;2023-07-29T00:02:59;96722.91;;;22.18;100.00
56944;BME280;42848;42.524;12.052;2023-07-29T00:05:25;96711.47;;;22.20;100.00
56944;BME280;42848;42.524;12.052;2023-07-29T00:07:50;96707.50;;;22.10;100.00
56944;BME280;42848;42.524;12.052;2023-07-29T00:10:16;96709.88;;;22.11;100.00
56944;BME280;42848;42.524;12.052;2023-07-29T00:12:41;96710.25;;;22.21;100.00
56944;BME280;42848;42.524;12.052;2023-07-29T00:15:08;96706.72;;;22.24;100.00
56944;BME280;42848;42.524;12.052;2023-07-29T00:17:33;96705.53;;;22.18;100.00
56944;BME280;42848;42.524;12.052;2023-07-29T00:19:59;96702.34;;;21.83;100.00
56944;BME280;42848;42.524;12.052;2023-07-29T00:22:24;96699.59;;;21.98;100.00
56944;BME280;42848;42.524;12.052;2023-07-29T00:24:53;96699.22;;;22.17;100.00
56944;BME280;42848;42.524;12.052;2023-07-29T00:27:21;96687.34;;;22.06;100.00
56944;BME280;42848;42.524;12.052;2023-07-29T00:29:47;96690.91;;;22.17;100.00
56944;BME280;42848;42.524;12.052;2023-07-29T00:32:12;96692.09;;;22.12;100.00
56944;BME280;42848;42.524;12.052;2023-07-29T00:34:38;96699.63;;;22.16;100.00
56944;BME280;42848;42.524;12.052;2023-07-29T00:37:03;96694.06;;;22.12;100.00
56944;BME280;42848;42.524;12.052;2023-07-29T00:39:31;96689.72;;;22.11;100.00
56944;BME280;42848;42.524;12.052;2023-07-29T00:41:57;96685.38;;;22.24;100.00
56944;BME280;42848;42.524;12.052;2023-07-29T00:44:23;96682.22;;;22.19;100.00
56944;BME280;42848;42.524;12.052;2023-07-29T00:46:50;96675.91;;;22.11;100.00
56944;BME280;42848;42.524;12.052;2023-07-29T00:49:18;96679.06;;;22.06;100.00
56944;BME280;42848;42.524;12.052;2023-07-29T00:51:43;96674.72;;;21.91;100.00
56944;BME280;42848;42.524;12.052;2023-07-29T00:54:09;96678.28;;;22.12;100.00
56944;BME280;42848;42.524;12.052;2023-07-29T00:56:35;96664.47;;;21.95;100.00
56944;BME280;42848;42.524;12.052;2023-07-29T00:59:01;96670.34;;;21.75;100.00
56944;BME280;42848;42.524;12.052;2023-07-29T01:01:28;96671.16;;;21.76;100.00
56944;BME280;42848;42.524;12.052;2023-07-29T01:03:54;96674.31;;;21.74;100.00
56944;BME280;42848;42.524;12.052;2023-07-29T01:06:41;96679.84;;;21.96;100.00
56944;BME280;42848;42.524;12.052;2023-07-29T01:12:01;96673.16;;;21.86;100.00
56944;BME280;42848;42.524;12.052;2023-07-29T01:14:49;96670.38;;;21.82;100.00
56944;BME280;42848;42.524;12.052;2023-07-29T01:17:23;96677.88;;;21.68;100.00
56944;BME280;42848;42.524;12.052;2023-07-29T01:22:21;96672.75;;;21.88;100.00
56944;BME280;42848;42.524;12.052;2023-07-29T01:24:48;96668.78;;;21.81;100.00
56944;BME280;42848;42.524;12.052;2023-07-29T01:27:14;96675.09;;;22.03;100.00
56944;BME280;42848;42.524;12.052;2023-07-29T01:29:40;96672.75;;;21.80;100.00
56944;BME280;42848;42.524;12.052;2023-07-29T01:32:17;96681.81;;;21.84;100.00
56944;BME280;42848;42.524;12.052;2023-07-29T01:37:34;96666.41;;;21.83;100.00
56944;BME280;42848;42.524;12.052;2023-07-29T01:40:01;96665.63;;;21.72;100.00
56944;BME280;42848;42.524;12.052;2023-07-29T01:42:27;96653.78;;;21.82;100.00
56944;BME280;42848;42.524;12.052;2023-07-29T01:44:54;96655.34;;;21.83;100.00
56944;BME280;42848;42.524;12.052;2023-07-29T01:47:20;96670.38;;;21.90;100.00
56944;BME280;42848;42.524;12.052;2023-07-29T01:49:47;96666.00;;;21.85;100.00
56944;BME280;42848;42.524;12.052;2023-07-29T01:52:13;96672.34;;;21.78;100.00
56944;BME280;42848;42.524;12.052;2023-07-29T01:54:38;96667.59;;;21.54;100.00
56944;BME280;42848;42.524;12.052;2023-07-29T01:57:04;96666.00;;;21.74;100.00
56944;BME280;42848;42.524;12.052;2023-07-29T01:59:29;96665.63;;;21.79;100.00
56944;BME280;42848;42.524;12.052;2023-07-29T02:01:55;96653.78;;;21.75;100.00
56944;BME280;42848;42.524;12.052;2023-07-29T02:04:21;96659.31;;;21.75;100.00
56944;BME280;42848;42.524;12.052;2023-07-29T02:06:46;96656.53;;;21.75;100.00
56944;BME280;42848;42.524;12.052;2023-07-29T02:09:12;96651.41;;;21.70;100.00
56944;BME280;42848;42.524;12.052;2023-07-29T02:11:37;96664.03;;;21.57;100.00
56944;BME280;42848;42.524;12.052;2023-07-29T02:14:03;96662.09;;;21.79;100.00
56944;BME280;42848;42.524;12.052;2023-07-29T02:16:28;96661.69;;;21.59;100.00
56944;BME280;42848;42.524;12.052;2023-07-29T02:18:54;96649.06;;;21.79;100.00
56944;BME280;42848;42.524;12.052;2023-07-29T02:21:20;96659.31;;;21.68;100.00
56944;BME280;42848;42.524;12.052;2023-07-29T02:23:45;96661.69;;;21.70;100.00
56944;BME280;42848;42.524;12.052;2023-07-29T02:26:11;96653.38;;;21.73;100.00
56944;BME280;42848;42.524;12.052;2023-07-29T02:28:36;96651.41;;;21.52;100.00
56944;BME280;42848;42.524;12.052;2023-07-29T02:31:24;96654.97;;;21.53;100.00
56944;BME280;42848;42.524;12.052;2023-07-29T02:33:51;96659.69;;;21.63;100.00
56944;BME280;42848;42.524;12.052;2023-07-29T02:36:17;96657.31;;;21.54;100.00
56944;BME280;42848;42.524;12.052;2023-07-29T02:38:43;96658.50;;;21.53;100.00
56944;BME280;42848;42.524;12.052;2023-07-29T02:41:10;96658.50;;;21.43;100.00
56944;BME280;42848;42.524;12.052;2023-07-29T02:43:37;96653.34;;;21.48;100.00
56944;BME280;42848;42.524;12.052;2023-07-29T02:46:03;96645.88;;;21.49;100.00
56944;BME280;42848;42.524;12.052;2023-07-29T02:48:29;96654.94;;;21.35;100.00
56944;BME280;42848;42.524;12.052;2023-07-29T02:50:56;96649.34;;;21.14;100.00
56944;BME280;42848;42.524;12.052;2023-07-29T02:53:22;96650.53;;;21.16;100.00
56944;BME280;42848;42.524;12.052;2023-07-29T02:55:48;96650.53;;;21.23;100.00
56944;BME280;42848;42.524;12.052;2023-07-29T02:58:14;96649.34;;;21.17;100.00
56944;BME280;42848;42.524;12.052;2023-07-29T03:00:40;96658.03;;;21.12;100.00
56944;BME280;42848;42.524;12.052;2023-07-29T03:03:09;96660.81;;;21.26;100.00
56944;BME280;42848;42.524;12.052;2023-07-29T03:05:34;96661.66;;;21.31;100.00
56944;BME280;42848;42.524;12.052;2023-07-29T03:08:00;96665.94;;;21.24;100.00
56944;BME280;42848;42.524;12.052;2023-07-29T03:10:26;96660.41;;;21.24;100.00
56944;BME280;42848;42.524;12.052;2023-07-29T03:12:54;96657.69;;;21.39;100.00
56944;BME280;42848;42.524;12.052;2023-07-29T03:15:23;96659.59;;;21.20;100.00
56944;BME280;42848;42.524;12.052;2023-07-29T03:17:52;96665.59;;;21.40;100.00
56944;BME280;42848;42.524;12.052;2023-07-29T03:20:19;96661.63;;;21.27;100.00
56944;BME280;42848;42.524;12.052;2023-07-29T03:22:45;96670.25;;;21.25;100.00
56944;BME280;42848;42.524;12.052;2023-07-29T03:25:12;96672.59;;;21.13;100.00
56944;BME280;42848;42.524;12.052;2023-07-29T03:27:37;96674.94;;;21.07;100.00
56944;BME280;42848;42.524;12.052;2023-07-29T03:30:05;96679.34;;;21.22;100.00
56944;BME280;42848;42.524;12.052;2023-07-29T03:32:31;96669.06;;;21.19;100.00
56944;BME280;42848;42.524;12.052;2023-07-29T03:34:56;96667.09;;;21.16;100.00
56944;BME280;42848;42.524;12.052;2023-07-29T03:37:22;96672.59;;;21.09;100.00
56944;BME280;42848;42.524;12.052;2023-07-29T03:39:48;96666.31;;;21.23;100.00
56944;BME280;42848;42.524;12.052;2023-07-29T03:42:13;96677.31;;;21.05;100.00
56944;BME280;42848;42.524;12.052;2023-07-29T03:44:39;96671.81;;;21.12;100.00
56944;BME280;42848;42.524;12.052;2023-07-29T03:47:06;96674.09;;;20.85;100.00
56944;BME280;42848;42.524;12.052;2023-07-29T03:49:32;96668.69;;;21.24;100.00
56944;BME280;42848;42.524;12.052;2023-07-29T03:51:57;96673.41;;;21.13;100.00
56944;BME280;42848;42.524;12.052;2023-07-29T03:54:23;96674.59;;;21.12;100.00
56944;BME280;42848;42.524;12.052;2023-07-29T03:56:48;96678.03;;;20.88;100.00
56944;BME280;42848;42.524;12.052;2023-07-29T03:59:14;96675.72;;;21.08;100.00
56944;BME280;42848;42.524;12.052;2023-07-29T04:01:40;96682.88;;;21.12;100.00
56944;BME280;42848;42.524;12.052;2023-07-29T04:04:05;96689.97;;;21.13;100.00
56944;BME280;42848;42.524;12.052;2023-07-29T04:06:31;96683.72;;;21.31;100.00
56944;BME280;42848;42.524;12.052;2023-07-29T04:08:57;96678.16;;;21.23;100.00
56944;BME280;42848;42.524;12.052;2023-07-29T04:11:23;96681.28;;;21.18;100.00
56944;BME280;42848;42.524;12.052;2023-07-29T04:13:49;96673.47;;;21.38;100.00
56944;BME280;42848;42.524;12.052;2023-07-29T04:16:15;96679.78;;;21.39;100.00
56944;BME280;42848;42.524;12.052;2023-07-29T04:18:42;96670.25;;;21.25;100.00
56944;BME280;42848;42.524;12.052;2023-07-29T04:21:07;96663.97;;;21.28;100.00
56944;BME280;42848;42.524;12.052;2023-07-29T04:23:33;96683.72;;;21.31;100.00
56944;BME280;42848;42.524;12.052;2023-07-29T04:25:58;96671.03;;;21.15;100.00
56944;BME280;42848;42.524;12.052;2023-07-29T04:28:24;96670.28;;;21.29;100.00
56944;BME280;42848;42.524;12.052;2023-07-29T04:30:50;96677.41;;;21.37;100.00
56944;BME280;42848;42.524;12.052;2023-07-29T04:33:15;96680.19;;;21.44;100.00
56944;BME280;42848;42.524;12.052;2023-07-29T04:35:41;96678.97;;;21.27;100.00
56944;BME280;42848;42.524;12.052;2023-07-29T04:38:06;96680.97;;;21.31;100.00
56944;BME280;42848;42.524;12.052;2023-07-29T04:40:35;96675.44;;;21.38;100.00
56944;BME280;42848;42.524;12.052;2023-07-29T04:43:01;96664.00;;;21.36;100.00
56944;BME280;42848;42.524;12.052;2023-07-29T04:45:30;96669.16;;;21.48;100.00
56944;BME280;42848;42.524;12.052;2023-07-29T04:47:57;96673.50;;;21.42;100.00
56944;BME280;42848;42.524;12.052;2023-07-29T04:50:23;96679.78;;;21.32;100.00
56944;BME280;42848;42.524;12.052;2023-07-29T04:52:49;96670.66;;;21.24;100.00
56944;BME280;42848;42.524;12.052;2023-07-29T04:55:14;96679.78;;;21.39;100.00
56944;BME280;42848;42.524;12.052;2023-07-29T04:57:40;96686.94;;;21.50;100.00
56944;BME280;42848;42.524;12.052;2023-07-29T05:00:06;96683.75;;;21.52;100.00
56944;BME280;42848;42.524;12.052;2023-07-29T05:02:32;96677.44;;;21.41;100.00
56944;BME280;42848;42.524;12.052;2023-07-29T05:04:57;96684.03;;;21.15;100.00
56944;BME280;42848;42.524;12.052;2023-07-29T05:07:23;96678.25;;;21.52;100.00
56944;BME280;42848;42.524;12.052;2023-07-29T05:09:48;96673.50;;;21.52;100.00
56944;BME280;42848;42.524;12.052;2023-07-29T05:12:14;96676.25;;;21.45;100.00
56944;BME280;42848;42.524;12.052;2023-07-29T05:14:39;96671.50;;;21.39;100.00
56944;BME280;42848;42.524;12.052;2023-07-29T05:17:06;96688.75;;;21.07;100.00
56944;BME280;42848;42.524;12.052;2023-07-29T05:19:31;96680.53;;;21.28;100.00
56944;BME280;42848;42.524;12.052;2023-07-29T05:21:57;96689.53;;;21.08;100.00
56944;BME280;42848;42.524;12.052;2023-07-29T05:24:23;96696.19;;;20.96;100.00
56944;BME280;42848;42.524;12.052;2023-07-29T05:26:49;96688.34;;;21.05;100.00
56944;BME280;42848;42.524;12.052;2023-07-29T05:29:15;96690.69;;;20.96;100.00
56944;BME280;42848;42.524;12.052;2023-07-29T05:31:41;96692.63;;;20.85;100.00
56944;BME280;42848;42.524;12.052;2023-07-29T05:34:06;96700.16;;;21.02;100.00
56944;BME280;42848;42.524;12.052;2023-07-29T05:36:32;96686.75;;;20.97;100.00
56944;BME280;42848;42.524;12.052;2023-07-29T05:38:57;96691.16;;;21.12;100.00
56944;BME280;42848;42.524;12.052;2023-07-29T05:41:23;96688.75;;;21.11;100.00
56944;BME280;42848;42.524;12.052;2023-07-29T05:43:49;96687.25;;;21.27;100.00
56944;BME280;42848;42.524;12.052;2023-07-29T05:46:14;96688.47;;;21.44;100.00
56944;BME280;42848;42.524;12.052;2023-07-29T05:48:40;96689.28;;;21.55;100.00
56944;BME280;42848;42.524;12.052;2023-07-29T05:51:05;96689.28;;;21.66;100.00
56944;BME280;42848;42.524;12.052;2023-07-29T05:53:31;96699.13;;;21.42;100.00
56944;BME280;42848;42.524;12.052;2023-07-29T05:55:57;96703.53;;;21.68;100.00
56944;BME280;42848;42.524;12.052;2023-07-29T05:58:22;96700.75;;;21.65;100.00
56944;BME280;42848;42.524;12.052;2023-07-29T06:00:48;96703.91;;;21.60;100.00
56944;BME280;42848;42.524;12.052;2023-07-29T06:03:13;96709.03;;;21.75;100.00
56944;BME280;42848;42.524;12.052;2023-07-29T06:05:39;96702.72;;;21.53;100.00
56944;BME280;42848;42.524;12.052;2023-07-29T06:08:05;96699.97;;;21.71;100.00
56944;BME280;42848;42.524;12.052;2023-07-29T06:10:30;96698.78;;;21.62;100.00
56944;BME280;42848;42.524;12.052;2023-07-29T06:12:56;96699.97;;;21.89;100.00
56944;BME280;42848;42.524;12.052;2023-07-29T06:15:22;96698.81;;;21.86;100.00
56944;BME280;42848;42.524;12.052;2023-07-29T06:17:48;96692.50;;;21.97;100.00
56944;BME280;42848;42.524;12.052;2023-07-29T06:20:14;96700.81;;;22.14;100.00
56944;BME280;42848;42.524;12.052;2023-07-29T06:22:41;96715.38;;;21.79;100.00
56944;BME280;42848;42.524;12.052;2023-07-29T06:25:06;96711.41;;;21.84;100.00
56944;BME280;42848;42.524;12.052;2023-07-29T06:27:32;96708.28;;;21.78;100.00
56944;BME280;42848;42.524;12.052;2023-07-29T06:29:57;96709.88;;;21.97;100.00
56944;BME280;42848;42.524;12.052;2023-07-29T06:32:23;96711.03;;;21.78;100.00
56944;BME280;42848;42.524;12.052;2023-07-29T06:34:49;96716.56;;;22.00;100.00
56944;BME280;42848;42.524;12.052;2023-07-29T06:37:14;96712.25;;;22.17;100.00
56944;BME280;42848;42.524;12.052;2023-07-29T06:39:40;96717.00;;;22.27;100.00
56944;BME280;42848;42.524;12.052;2023-07-29T06:42:05;96716.19;;;22.37;100.00
56944;BME280;42848;42.524;12.052;2023-07-29T06:44:32;96714.59;;;22.39;100.00
56944;BME280;42848;42.524;12.052;2023-07-29T06:46:58;96711.44;;;22.45;100.00
56944;BME280;42848;42.524;12.052;2023-07-29T06:49:23;96716.19;;;22.33;100.00
56944;BME280;42848;42.524;12.052;2023-07-29T06:51:49;96709.06;;;22.50;100.00
56944;BME280;42848;42.524;12.052;2023-07-29T06:54:16;96709.47;;;22.41;100.00
56944;BME280;42848;42.524;12.052;2023-07-29T06:56:42;96713.41;;;22.30;100.00
56944;BME280;42848;42.524;12.052;2023-07-29T06:59:08;96714.59;;;22.36;100.00
56944;BME280;42848;42.524;12.052;2023-07-29T07:01:34;96714.59;;;22.47;100.00
56944;BME280;42848;42.524;12.052;2023-07-29T07:04:00;96716.94;;;22.59;100.00
56944;BME280;42848;42.524;12.052;2023-07-29T07:06:25;96710.63;;;22.55;100.00
56944;BME280;42848;42.524;12.052;2023-07-29T07:08:51;96709.41;;;22.70;100.00
56944;BME280;42848;42.524;12.052;2023-07-29T07:11:18;96710.59;;;22.69;100.00
56944;BME280;42848;42.524;12.052;2023-07-29T07:13:44;96707.88;;;22.44;100.00
56944;BME280;42848;42.524;12.052;2023-07-29T07:16:09;96705.44;;;22.71;100.00
56944;BME280;42848;42.524;12.052;2023-07-29T07:18:35;96701.09;;;22.70;100.00
56944;BME280;42848;42.524;12.052;2023-07-29T07:21:00;96698.72;;;22.79;100.00
56944;BME280;42848;42.524;12.052;2023-07-29T07:23:26;96705.84;;;22.66;100.00
56944;BME280;42848;42.524;12.052;2023-07-29T07:25:52;96701.47;;;22.76;100.00
56944;BME280;42848;42.524;12.052;2023-07-29T07:28:17;96702.66;;;22.85;100.00
56944;BME280;42848;42.524;12.052;2023-07-29T07:30:43;96706.13;;;23.04;100.00
56944;BME280;42848;42.524;12.052;2023-07-29T07:33:09;96704.97;;;23.05;100.00
56944;BME280;42848;42.524;12.052;2023-07-29T07:35:34;96708.13;;;23.07;100.00
56944;BME280;42848;42.524;12.052;2023-07-29T07:38:00;96707.25;;;23.24;100.00
56944;BME280;42848;42.524;12.052;2023-07-29T07:40:29;96699.41;;;23.08;100.00
56944;BME280;42848;42.524;12.052;2023-07-29T07:42:55;96710.41;;;23.26;100.00
56944;BME280;42848;42.524;12.052;2023-07-29T07:45:21;96702.91;;;23.23;100.00
56944;BME280;42848;42.524;12.052;2023-07-29T07:47:46;96700.50;;;23.28;100.00
56944;BME280;42848;42.524;12.052;2023-07-29T07:50:12;96708.75;;;23.39;100.00
56944;BME280;42848;42.524;12.052;2023-07-29T07:52:39;96703.25;;;23.32;100.00
56944;BME280;42848;42.524;12.052;2023-07-29T07:55:05;96715.91;;;23.33;100.00
56944;BME280;42848;42.524;12.052;2023-07-29T07:57:30;96704.06;;;23.29;100.00
56944;BME280;42848;42.524;12.052;2023-07-29T07:59:56;96704.06;;;23.33;100.00
56944;BME280;42848;42.524;12.052;2023-07-29T08:02:21;96710.25;;;23.54;100.00
56944;BME280;42848;42.524;12.052;2023-07-29T08:04:47;96717.41;;;23.48;100.00
56944;BME280;42848;42.524;12.052;2023-07-29T08:07:13;96715.00;;;23.54;100.00
56944;BME280;42848;42.524;12.052;2023-07-29T08:09:39;96712.97;;;23.65;100.00
56944;BME280;42848;42.524;12.052;2023-07-29T08:12:05;96711.84;;;23.52;100.00
56944;BME280;42848;42.524;12.052;2023-07-29T08:14:31;96717.38;;;23.55;100.00
56944;BME280;42848;42.524;12.052;2023-07-29T08:16:57;96724.06;;;23.69;100.00
56944;BME280;42848;42.524;12.052;2023-07-29T08:19:22;96715.69;;;23.76;100.00
56944;BME280;42848;42.524;12.052;2023-07-29T08:21:48;96715.66;;;23.79;100.00
56944;BME280;42848;42.524;12.052;2023-07-29T08:24:13;96716.75;;;23.93;100.00
56944;BME280;42848;42.524;12.052;2023-07-29T08:26:39;96717.59;;;23.86;100.00
56944;BME280;42848;42.524;12.052;2023-07-29T08:29:05;96710.00;;;23.94;100.00
56944;BME280;42848;42.524;12.052;2023-07-29T08:31:30;96717.53;;;23.93;100.00
56944;BME280;42848;42.524;12.052;2023-07-29T08:33:59;96725.25;;;24.20;100.00
56944;BME280;42848;42.524;12.052;2023-07-29T08:36:25;96719.44;;;24.03;100.00
56944;BME280;42848;42.524;12.052;2023-07-29T08:38:51;96710.78;;;23.94;100.00
56944;BME280;42848;42.524;12.052;2023-07-29T08:41:21;96714.44;;;24.36;100.00
56944;BME280;42848;42.524;12.052;2023-07-29T08:46:29;96710.03;;;23.90;100.00
56944;BME280;42848;42.524;12.052;2023-07-29T08:48:55;96707.53;;;24.06;100.00
56944;BME280;42848;42.524;12.052;2023-07-29T08:51:23;96701.97;;;24.10;100.00
56944;BME280;42848;42.524;12.052;2023-07-29T08:53:49;96704.03;;;24.47;100.00
56944;BME280;42848;42.524;12.052;2023-07-29T08:56:15;96702.19;;;24.33;100.00
56944;BME280;42848;42.524;12.052;2023-07-29T08:58:41;96699.03;;;24.28;100.00
56944;BME280;42848;42.524;12.052;2023-07-29T09:01:07;96706.06;;;24.43;100.00
56944;BME280;42848;42.524;12.052;2023-07-29T09:03:33;96708.19;;;24.21;100.00
56944;BME280;42848;42.524;12.052;2023-07-29T09:05:59;96708.13;;;24.32;100.00
56944;BME280;42848;42.524;12.052;2023-07-29T09:08:29;96713.25;;;24.75;100.00
56944;BME280;42848;42.524;12.052;2023-07-29T09:10:55;96706.06;;;24.81;100.00
56944;BME280;42848;42.524;12.052;2023-07-29T09:13:21;96708.00;;;24.84;100.00
56944;BME280;42848;42.524;12.052;2023-07-29T09:15:47;96715.59;;;24.80;100.00
56944;BME280;42848;42.524;12.052;2023-07-29T09:18:18;96713.31;;;24.71;100.00
56944;BME280;42848;42.524;12.052;2023-07-29T09:20:47;96713.25;;;24.75;100.00
56944;BME280;42848;42.524;12.052;2023-07-29T09:23:14;96720.31;;;24.83;100.00
56944;BME280;42848;42.524;12.052;2023-07-29T09:25:40;96712.34;;;24.85;100.00
56944;BME280;42848;42.524;12.052;2023-07-29T09:28:14;96719.34;;;24.62;100.00
56944;BME280;42848;42.524;12.052;2023-07-29T09:30:41;96723.16;;;24.76;100.00
56944;BME280;42848;42.524;12.052;2023-07-29T09:33:09;96714.28;;;24.54;100.00
56944;BME280;42848;42.524;12.052;2023-07-29T09:35:36;96714.88;;;24.72;100.00
56944;BME280;42848;42.524;12.052;2023-07-29T09:38:03;96713.13;;;24.85;100.00
56944;BME280;42848;42.524;12.052;2023-07-29T09:40:40;96718.44;;;25.10;100.00
56944;BME280;42848;42.524;12.052;2023-07-29T09:43:08;96717.09;;;24.88;100.00
56944;BME280;42848;42.524;12.052;2023-07-29T09:45:36;96710.63;;;24.98;100.00
56944;BME280;42848;42.524;12.052;2023-07-29T09:48:04;96714.50;;;25.08;100.00
56944;BME280;42848;42.524;12.052;2023-07-29T09:50:36;96711.75;;;25.04;100.00
56944;BME280;42848;42.524;12.052;2023-07-29T09:53:02;96720.78;;;25.15;100.00
56944;BME280;42848;42.524;12.052;2023-07-29T09:55:28;96715.94;;;25.19;100.00
56944;BME280;42848;42.524;12.052;2023-07-29T09:57:59;96719.84;;;25.26;100.00
56944;BME280;42848;42.524;12.052;2023-07-29T10:00:32;96717.16;;;25.18;100.00
56944;BME280;42848;42.524;12.052;2023-07-29T10:02:59;96709.75;;;25.39;100.00
56944;BME280;42848;42.524;12.052;2023-07-29T10:05:29;96710.88;;;25.41;100.00
56944;BME280;42848;42.524;12.052;2023-07-29T10:07:56;96711.03;;;25.31;100.00
56944;BME280;42848;42.524;12.052;2023-07-29T10:10:22;96714.25;;;25.29;100.00
56944;BME280;42848;42.524;12.052;2023-07-29T10:12:48;96715.34;;;25.35;100.00
56944;BME280;42848;42.524;12.052;2023-07-29T10:15:15;96716.09;;;25.39;100.00
56944;BME280;42848;42.524;12.052;2023-07-29T10:17:41;96718.06;;;25.39;100.00
56944;BME280;42848;42.524;12.052;2023-07-29T10:20:08;96724.34;;;25.46;100.00
56944;BME280;42848;42.524;12.052;2023-07-29T10:22:40;96718.88;;;25.39;99.59
56944;BME280;42848;42.524;12.052;2023-07-29T10:25:38;96713.91;;;25.54;100.00
56944;BME280;42848;42.524;12.052;2023-07-29T10:28:12;96717.13;;;25.52;98.64
56944;BME280;42848;42.524;12.052;2023-07-29T10:30:38;96723.41;;;25.57;98.34
56944;BME280;42848;42.524;12.052;2023-07-29T10:33:05;96715.44;;;25.86;100.00
56944;BME280;42848;42.524;12.052;2023-07-29T10:35:35;96727.78;;;25.85;99.35
56944;BME280;42848;42.524;12.052;2023-07-29T10:38:02;96717.66;;;25.98;97.78
56944;BME280;42848;42.524;12.052;2023-07-29T10:40:48;96715.78;;;25.91;93.90
56944;BME280;42848;42.524;12.052;2023-07-29T10:43:24;96718.59;;;25.88;96.55
56944;BME280;42848;42.524;12.052;2023-07-29T10:45:50;96715.00;;;25.91;90.67
56944;BME280;42848;42.524;12.052;2023-07-29T10:48:43;96707.00;;;25.93;94.14
56944;BME280;42848;42.524;12.052;2023-07-29T10:51:28;96708.13;;;25.99;97.14
56944;BME280;42848;42.524;12.052;2023-07-29T10:56:29;96710.09;;;25.98;100.00
56944;BME280;42848;42.524;12.052;2023-07-29T10:58:57;96708.53;;;25.97;100.00
56944;BME280;42848;42.524;12.052;2023-07-29T11:01:30;96704.00;;;26.07;100.00
56944;BME280;42848;42.524;12.052;2023-07-29T11:04:27;96702.81;;;26.08;100.00
56944;BME280;42848;42.524;12.052;2023-07-29T11:09:42;96699.13;;;26.38;96.82
56944;BME280;42848;42.524;12.052;2023-07-29T11:17:41;96694.09;;;26.53;95.94
56944;BME280;42848;42.524;12.052;2023-07-29T11:20:07;96692.13;;;26.73;97.12
56944;BME280;42848;42.524;12.052;2023-07-29T11:22:34;96688.34;;;26.83;100.00
56944;BME280;42848;42.524;12.052;2023-07-29T11:25:00;96692.03;;;27.20;99.25
56944;BME280;42848;42.524;12.052;2023-07-29T11:27:26;96680.81;;;27.04;97.40
56944;BME280;42848;42.524;12.052;2023-07-29T11:30:03;96683.78;;;27.33;100.00
56944;BME280;42848;42.524;12.052;2023-07-29T11:32:30;96688.22;;;27.30;100.00
56944;BME280;42848;42.524;12.052;2023-07-29T11:35:01;96688.41;;;27.39;99.22
56944;BME280;42848;42.524;12.052;2023-07-29T11:37:27;96689.56;;;27.22;99.85
56944;BME280;42848;42.524;12.052;2023-07-29T11:39:52;96691.31;;;27.16;100.00
56944;BME280;42848;42.524;12.052;2023-07-29T11:42:18;96676.44;;;27.03;100.00
56944;BME280;42848;42.524;12.052;2023-07-29T11:44:44;96675.28;;;27.20;100.00
56944;BME280;42848;42.524;12.052;2023-07-29T11:47:10;96677.50;;;27.65;100.00
56944;BME280;42848;42.524;12.052;2023-07-29T11:49:39;96672.22;;;27.50;100.00
56944;BME280;42848;42.524;12.052;2023-07-29T11:52:07;96671.34;;;27.37;100.00
56944;BME280;42848;42.524;12.052;2023-07-29T11:54:35;96670.47;;;27.76;100.00
56944;BME280;42848;42.524;12.052;2023-07-29T11:57:12;96670.47;;;27.93;100.00
56944;BME280;42848;42.524;12.052;2023-07-29T11:59:39;96667.78;;;27.73;100.00
56944;BME280;42848;42.524;12.052;2023-07-29T12:02:16;96669.53;;;27.99;98.80
56944;BME280;42848;42.524;12.052;2023-07-29T12:04:45;96673.19;;;27.80;98.59
56944;BME280;42848;42.524;12.052;2023-07-29T12:07:13;96676.78;;;27.61;100.00
56944;BME280;42848;42.524;12.052;2023-07-29T12:09:40;96679.94;;;27.63;100.00
56944;BME280;42848;42.524;12.052;2023-07-29T12:12:07;96668.31;;;28.00;99.97
56944;BME280;42848;42.524;12.052;2023-07-29T12:14:34;96675.09;;;28.32;99.06
56944;BME280;42848;42.524;12.052;2023-07-29T12:17:01;96669.59;;;27.96;100.00
56944;BME280;42848;42.524;12.052;2023-07-29T12:19:35;96678.25;;;27.85;100.00
56944;BME280;42848;42.524;12.052;2023-07-29T12:22:06;96674.56;;;27.88;100.00
56944;BME280;42848;42.524;12.052;2023-07-29T12:24:35;96672.84;;;28.11;100.00
56944;BME280;42848;42.524;12.052;2023-07-29T12:27:01;96681.63;;;28.42;100.00
56944;BME280;42848;42.524;12.052;2023-07-29T12:29:27;96677.69;;;28.55;100.00
56944;BME280;42848;42.524;12.052;2023-07-29T12:32:03;96683.16;;;28.30;100.00
56944;BME280;42848;42.524;12.052;2023-07-29T12:34:30;96691.22;;;28.24;100.00
56944;BME280;42848;42.524;12.052;2023-07-29T12:36:58;96687.03;;;28.16;100.00
56944;BME280;42848;42.524;12.052;2023-07-29T12:39:29;96680.34;;;28.14;100.00
56944;BME280;42848;42.524;12.052;2023-07-29T12:41:56;96681.59;;;28.29;100.00
56944;BME280;42848;42.524;12.052;2023-07-29T12:44:23;96675.59;;;27.62;100.00
56944;BME280;42848;42.524;12.052;2023-07-29T12:46:49;96674.75;;;27.81;100.00
56944;BME280;42848;42.524;12.052;2023-07-29T12:49:15;96670.91;;;28.24;100.00
56944;BME280;42848;42.524;12.052;2023-07-29T12:51:41;96664.88;;;28.42;100.00
56944;BME280;42848;42.524;12.052;2023-07-29T12:54:07;96673.84;;;28.66;100.00
56944;BME280;42848;42.524;12.052;2023-07-29T12:56:34;96663.69;;;28.72;100.00
56944;BME280;42848;42.524;12.052;2023-07-29T12:59:00;96655.78;;;28.99;100.00
56944;BME280;42848;42.524;12.052;2023-07-29T13:01:27;96666.25;;;28.95;100.00